sensor_id;sensor_type;location;lat;lon;timestamp;pressure;altitude;pressure_sealevel;temperature;humidity
64336;BME280;50672;53.362;-6.240;2022-09-09T00:04:43;100625.41;;;16.00;81.74
64336;BME280;50672;53.362;-6.240;2022-09-09T00:07:23;100626.88;;;15.96;81.58
64336;BME280;50672;53.362;-6.240;2022-09-09T00:13:01;100623.75;;;15.86;82.14
64336;BME280;50672;53.362;-6.240;2022-09-09T00:15:40;100629.22;;;15.86;82.25
64336;BME280;50672;53.362;-6.240;2022-09-09T00:18:13;100633.03;;;15.85;82.51
64336;BME280;50672;53.362;-6.240;2022-09-09T00:23:39;100634.28;;;15.76;82.96
64336;BME280;50672;53.362;-6.240;2022-09-09T00:26:43;100635.13;;;15.69;82.67
64336;BME280;50672;53.362;-6.240;2022-09-09T00:31:38;100632.81;;;15.66;83.01
64336;BME280;50672;53.362;-6.240;2022-09-09T00:34:25;100630.28;;;15.65;83.54
64336;BME280;50672;53.362;-6.240;2022-09-09T00:36:55;100628.81;;;15.62;83.57
64336;BME280;50672;53.362;-6.240;2022-09-09T00:44:28;100614.88;;;15.57;83.88
64336;BME280;50672;53.362;-6.240;2022-09-09T00:47:12;100618.69;;;15.56;83.83
64336;BME280;50672;53.362;-6.240;2022-09-09T00:57:51;100616.16;;;15.54;83.98
64336;BME280;50672;53.362;-6.240;2022-09-09T01:00:24;100619.94;;;15.53;84.38
64336;BME280;50672;53.362;-6.240;2022-09-09T01:03:14;100616.56;;;15.51;84.37
64336;BME280;50672;53.362;-6.240;2022-09-09T01:11:32;100611.94;;;15.45;84.48
64336;BME280;50672;53.362;-6.240;2022-09-09T01:14:27;100612.78;;;15.46;84.49
64336;BME280;50672;53.362;-6.240;2022-09-09T01:17:01;100611.09;;;15.45;84.53
64336;BME280;50672;53.362;-6.240;2022-09-09T01:22:13;100614.03;;;15.43;84.74
64336;BME280;50672;53.362;-6.240;2022-09-09T01:25:09;100612.38;;;15.42;84.99
64336;BME280;50672;53.362;-6.240;2022-09-09T01:27:41;100617.84;;;15.42;85.22
64336;BME280;50672;53.362;-6.240;2022-09-09T01:30:13;100610.88;;;15.40;85.00
64336;BME280;50672;53.362;-6.240;2022-09-09T01:32:43;100602.00;;;15.37;85.19
64336;BME280;50672;53.362;-6.240;2022-09-09T01:35:15;100608.56;;;15.36;85.45
64336;BME280;50672;53.362;-6.240;2022-09-09T01:37:44;100615.09;;;15.35;85.21
64336;BME280;50672;53.362;-6.240;2022-09-09T01:40:12;100605.19;;;15.34;85.39
64336;BME280;50672;53.362;-6.240;2022-09-09T01:42:38;100610.88;;;15.33;85.40
64336;BME280;50672;53.362;-6.240;2022-09-09T01:45:06;100602.88;;;15.31;85.72
64336;BME280;50672;53.362;-6.240;2022-09-09T01:47:34;100615.53;;;15.32;85.36
64336;BME280;50672;53.362;-6.240;2022-09-09T01:50:02;100612.78;;;15.32;85.81
64336;BME280;50672;53.362;-6.240;2022-09-09T01:52:39;100611.91;;;15.32;85.70
64336;BME280;50672;53.362;-6.240;2022-09-09T01:55:06;100611.91;;;15.32;85.90
64336;BME280;50672;53.362;-6.240;2022-09-09T01:57:54;100610.25;;;15.31;85.70
64336;BME280;50672;53.362;-6.240;2022-09-09T02:00:22;100614.88;;;15.30;85.89
64336;BME280;50672;53.362;-6.240;2022-09-09T02:06:03;100613.84;;;15.31;86.03
64336;BME280;50672;53.362;-6.240;2022-09-09T02:08:45;100605.81;;;15.30;86.21
64336;BME280;50672;53.362;-6.240;2022-09-09T02:11:21;100608.56;;;15.30;85.93
64336;BME280;50672;53.362;-6.240;2022-09-09T02:13:49;100615.09;;;15.29;86.30
64336;BME280;50672;53.362;-6.240;2022-09-09T02:16:27;100606.03;;;15.28;86.24
64336;BME280;50672;53.362;-6.240;2022-09-09T02:19:01;100596.72;;;15.29;86.30
64336;BME280;50672;53.362;-6.240;2022-09-09T02:21:32;100602.03;;;15.31;86.38
64336;BME280;50672;53.362;-6.240;2022-09-09T02:24:07;100609.41;;;15.30;86.28
64336;BME280;50672;53.362;-6.240;2022-09-09T02:26:41;100607.69;;;15.29;86.41
64336;BME280;50672;53.362;-6.240;2022-09-09T02:29:13;100602.88;;;15.31;86.30
64336;BME280;50672;53.362;-6.240;2022-09-09T02:31:42;100610.25;;;15.31;86.44
64336;BME280;50672;53.362;-6.240;2022-09-09T02:34:11;100610.03;;;15.32;86.35
64336;BME280;50672;53.362;-6.240;2022-09-09T02:36:41;100602.88;;;15.31;86.48
64336;BME280;50672;53.362;-6.240;2022-09-09T02:39:10;100604.97;;;15.29;86.61
64336;BME280;50672;53.362;-6.240;2022-09-09T02:41:39;100606.03;;;15.28;86.58
64336;BME280;50672;53.362;-6.240;2022-09-09T02:44:15;100614.47;;;15.27;86.49
64336;BME280;50672;53.362;-6.240;2022-09-09T02:52:20;100600.97;;;15.25;86.61
64336;BME280;50672;53.362;-6.240;2022-09-09T02:54:57;100599.06;;;15.26;86.57
64336;BME280;50672;53.362;-6.240;2022-09-09T02:57:28;100600.09;;;15.25;87.00
64336;BME280;50672;53.362;-6.240;2022-09-09T02:59:58;100598.41;;;15.24;87.07
64336;BME280;50672;53.362;-6.240;2022-09-09T03:02:27;100590.41;;;15.22;86.76
64336;BME280;50672;53.362;-6.240;2022-09-09T03:04:54;100587.03;;;15.20;87.02
64336;BME280;50672;53.362;-6.240;2022-09-09T03:07:21;100585.56;;;15.17;86.89
64336;BME280;50672;53.362;-6.240;2022-09-09T03:10:09;100583.66;;;15.18;87.14
64336;BME280;50672;53.362;-6.240;2022-09-09T03:13:36;100587.47;;;15.17;87.01
64336;BME280;50672;53.362;-6.240;2022-09-09T03:17:02;100579.88;;;15.19;87.03
64336;BME280;50672;53.362;-6.240;2022-09-09T03:20:45;100578.16;;;15.18;87.19
64336;BME280;50672;53.362;-6.240;2022-09-09T03:24:12;100592.53;;;15.20;87.03
64336;BME280;50672;53.362;-6.240;2022-09-09T03:31:10;100595.25;;;15.13;86.99
64336;BME280;50672;53.362;-6.240;2022-09-09T03:33:57;100595.47;;;15.12;87.29
64336;BME280;50672;53.362;-6.240;2022-09-09T03:37:23;100584.09;;;15.01;87.72
64336;BME280;50672;53.362;-6.240;2022-09-09T03:44:11;100589.97;;;14.85;87.72
64336;BME280;50672;53.362;-6.240;2022-09-09T03:46:38;100597.13;;;14.79;87.91
64336;BME280;50672;53.362;-6.240;2022-09-09T03:49:05;100597.50;;;14.76;88.30
64336;BME280;50672;53.362;-6.240;2022-09-09T03:51:32;100592.03;;;14.76;88.54
64336;BME280;50672;53.362;-6.240;2022-09-09T03:54:02;100602.97;;;14.76;88.40
64336;BME280;50672;53.362;-6.240;2022-09-09T03:56:31;100601.53;;;14.74;88.59
64336;BME280;50672;53.362;-6.240;2022-09-09T03:58:58;100603.41;;;14.73;88.77
64336;BME280;50672;53.362;-6.240;2022-09-09T04:01:25;100605.72;;;14.69;88.79
64336;BME280;50672;53.362;-6.240;2022-09-09T04:03:52;100602.34;;;14.67;88.99
64336;BME280;50672;53.362;-6.240;2022-09-09T04:06:19;100604.03;;;14.68;89.20
64336;BME280;50672;53.362;-6.240;2022-09-09T04:08:47;100597.91;;;14.66;89.25
64336;BME280;50672;53.362;-6.240;2022-09-09T04:11:15;100595.81;;;14.68;89.22
64336;BME280;50672;53.362;-6.240;2022-09-09T04:13:42;100592.88;;;14.70;89.61
64336;BME280;50672;53.362;-6.240;2022-09-09T04:16:11;100598.56;;;14.68;89.52
64336;BME280;50672;53.362;-6.240;2022-09-09T04:18:40;100594.13;;;14.67;89.95
64336;BME280;50672;53.362;-6.240;2022-09-09T04:21:08;100601.72;;;14.65;90.09
64336;BME280;50672;53.362;-6.240;2022-09-09T04:23:36;100603.38;;;14.66;90.01
64336;BME280;50672;53.362;-6.240;2022-09-09T04:26:03;100610.75;;;14.66;90.05
64336;BME280;50672;53.362;-6.240;2022-09-09T04:28:50;100613.50;;;14.66;89.96
64336;BME280;50672;53.362;-6.240;2022-09-09T04:32:17;100605.06;;;14.67;90.09
64336;BME280;50672;53.362;-6.240;2022-09-09T04:39:35;100613.28;;;14.67;90.37
64336;BME280;50672;53.362;-6.240;2022-09-09T04:43:02;100606.78;;;14.68;90.56
64336;BME280;50672;53.362;-6.240;2022-09-09T04:45:36;100605.06;;;14.67;90.32
64336;BME280;50672;53.362;-6.240;2022-09-09T04:48:03;100616.69;;;14.69;90.59
64336;BME280;50672;53.362;-6.240;2022-09-09T04:50:30;100617.31;;;14.72;90.64
64336;BME280;50672;53.362;-6.240;2022-09-09T04:53:21;100612.88;;;14.70;90.28
64336;BME280;50672;53.362;-6.240;2022-09-09T04:56:47;100610.13;;;14.70;90.31
64336;BME280;50672;53.362;-6.240;2022-09-09T05:00:14;100610.78;;;14.73;90.63
64336;BME280;50672;53.362;-6.240;2022-09-09T05:03:40;100608.66;;;14.75;90.56
64336;BME280;50672;53.362;-6.240;2022-09-09T05:07:33;100617.75;;;14.75;90.29
64336;BME280;50672;53.362;-6.240;2022-09-09T05:10:59;100616.69;;;14.76;90.19
64336;BME280;50672;53.362;-6.240;2022-09-09T05:17:48;100621.53;;;14.74;90.58
64336;BME280;50672;53.362;-6.240;2022-09-09T05:20:34;100625.13;;;14.75;90.66
64336;BME280;50672;53.362;-6.240;2022-09-09T05:24:01;100623.44;;;14.74;90.30
64336;BME280;50672;53.362;-6.240;2022-09-09T05:31:09;100625.31;;;14.73;90.62
64336;BME280;50672;53.362;-6.240;2022-09-09T05:34:36;100624.50;;;14.73;90.25
64336;BME280;50672;53.362;-6.240;2022-09-09T05:38:05;100631.00;;;14.72;90.57
64336;BME280;50672;53.362;-6.240;2022-09-09T05:41:55;100631.66;;;14.74;90.25
64336;BME280;50672;53.362;-6.240;2022-09-09T05:45:21;100630.81;;;14.73;90.59
64336;BME280;50672;53.362;-6.240;2022-09-09T05:48:49;100636.72;;;14.77;90.47
64336;BME280;50672;53.362;-6.240;2022-09-09T05:51:56;100649.19;;;14.79;90.33
64336;BME280;50672;53.362;-6.240;2022-09-09T05:54:42;100651.50;;;14.82;90.54
64336;BME280;50672;53.362;-6.240;2022-09-09T05:58:10;100656.34;;;14.87;90.37
64336;BME280;50672;53.362;-6.240;2022-09-09T06:02:02;100662.28;;;14.91;90.69
64336;BME280;50672;53.362;-6.240;2022-09-09T06:12:07;100659.94;;;14.94;90.27
64336;BME280;50672;53.362;-6.240;2022-09-09T06:14:35;100663.56;;;14.95;90.22
64336;BME280;50672;53.362;-6.240;2022-09-09T06:17:01;100665.44;;;14.94;90.20
64336;BME280;50672;53.362;-6.240;2022-09-09T06:19:28;100670.69;;;14.96;90.47
64336;BME280;50672;53.362;-6.240;2022-09-09T06:21:57;100676.84;;;14.98;90.53
64336;BME280;50672;53.362;-6.240;2022-09-09T06:24:24;100674.94;;;14.98;90.43
64336;BME280;50672;53.362;-6.240;2022-09-09T06:26:51;100683.59;;;15.02;90.06
64336;BME280;50672;53.362;-6.240;2022-09-09T06:29:18;100684.44;;;15.02;90.40
64336;BME280;50672;53.362;-6.240;2022-09-09T06:31:45;100690.34;;;15.06;90.40
64336;BME280;50672;53.362;-6.240;2022-09-09T06:34:12;100695.63;;;15.08;90.54
64336;BME280;50672;53.362;-6.240;2022-09-09T06:36:39;100694.59;;;15.09;90.51
64336;BME280;50672;53.362;-6.240;2022-09-09T06:39:06;100691.44;;;15.12;90.16
64336;BME280;50672;53.362;-6.240;2022-09-09T06:41:40;100704.72;;;15.15;90.22
64336;BME280;50672;53.362;-6.240;2022-09-09T06:44:09;100702.63;;;15.17;90.10
64336;BME280;50672;53.362;-6.240;2022-09-09T06:46:38;100702.22;;;15.20;90.05
64336;BME280;50672;53.362;-6.240;2022-09-09T06:49:07;100710.66;;;15.25;90.11
64336;BME280;50672;53.362;-6.240;2022-09-09T06:51:36;100712.13;;;15.28;90.40
64336;BME280;50672;53.362;-6.240;2022-09-09T06:54:10;100706.41;;;15.29;90.18
64336;BME280;50672;53.362;-6.240;2022-09-09T06:56:41;100713.59;;;15.30;90.24
64336;BME280;50672;53.362;-6.240;2022-09-09T06:59:10;100713.59;;;15.30;90.04
64336;BME280;50672;53.362;-6.240;2022-09-09T07:01:41;100724.56;;;15.30;89.96
64336;BME280;50672;53.362;-6.240;2022-09-09T07:04:10;100721.84;;;15.30;89.81
64336;BME280;50672;53.362;-6.240;2022-09-09T07:06:40;100726.91;;;15.33;90.26
64336;BME280;50672;53.362;-6.240;2022-09-09T07:09:11;100729.25;;;15.36;89.81
64336;BME280;50672;53.362;-6.240;2022-09-09T07:11:47;100736.00;;;15.41;89.75
64336;BME280;50672;53.362;-6.240;2022-09-09T07:14:15;100744.44;;;15.46;89.95
64336;BME280;50672;53.362;-6.240;2022-09-09T07:16:43;100742.34;;;15.48;89.96
64336;BME280;50672;53.362;-6.240;2022-09-09T07:19:10;100751.84;;;15.52;90.00
64336;BME280;50672;53.362;-6.240;2022-09-09T07:21:37;100751.00;;;15.58;89.62
64336;BME280;50672;53.362;-6.240;2022-09-09T07:24:04;100754.19;;;15.62;89.77
64336;BME280;50672;53.362;-6.240;2022-09-09T07:26:34;100762.22;;;15.63;89.82
64336;BME280;50672;53.362;-6.240;2022-09-09T07:29:01;100767.69;;;15.63;89.68
64336;BME280;50672;53.362;-6.240;2022-09-09T07:31:31;100771.06;;;15.65;89.36
64336;BME280;50672;53.362;-6.240;2022-09-09T07:33:59;100772.13;;;15.64;89.50
64336;BME280;50672;53.362;-6.240;2022-09-09T07:36:37;100774.88;;;15.71;89.37
64336;BME280;50672;53.362;-6.240;2022-09-09T07:39:13;100771.50;;;15.76;89.44
64336;BME280;50672;53.362;-6.240;2022-09-09T07:41:42;100777.63;;;15.78;89.05
64336;BME280;50672;53.362;-6.240;2022-09-09T07:44:15;100774.88;;;15.78;89.20
64336;BME280;50672;53.362;-6.240;2022-09-09T07:46:42;100777.88;;;15.83;88.98
64336;BME280;50672;53.362;-6.240;2022-09-09T07:49:10;100783.38;;;15.89;89.12
64336;BME280;50672;53.362;-6.240;2022-09-09T07:51:39;100778.94;;;15.95;88.78
64336;BME280;50672;53.362;-6.240;2022-09-09T07:54:09;100784.84;;;15.99;88.84
64336;BME280;50672;53.362;-6.240;2022-09-09T07:56:38;100792.03;;;16.06;88.97
64336;BME280;50672;53.362;-6.240;2022-09-09T07:59:06;100795.41;;;16.22;88.91
64336;BME280;50672;53.362;-6.240;2022-09-09T08:01:36;100796.88;;;16.38;88.53
64336;BME280;50672;53.362;-6.240;2022-09-09T08:04:08;100804.88;;;16.60;88.64
64336;BME280;50672;53.362;-6.240;2022-09-09T08:06:39;100809.50;;;16.72;88.30
64336;BME280;50672;53.362;-6.240;2022-09-09T08:09:08;100809.94;;;16.69;88.14
64336;BME280;50672;53.362;-6.240;2022-09-09T08:11:35;100816.25;;;16.77;88.32
64336;BME280;50672;53.362;-6.240;2022-09-09T08:14:06;100825.97;;;16.86;88.02
64336;BME280;50672;53.362;-6.240;2022-09-09T08:16:37;100818.16;;;16.89;87.92
64336;BME280;50672;53.362;-6.240;2022-09-09T08:19:05;100830.59;;;17.05;87.52
64336;BME280;50672;53.362;-6.240;2022-09-09T08:21:35;100833.94;;;17.21;87.42
64336;BME280;50672;53.362;-6.240;2022-09-09T08:24:03;100827.94;;;17.37;87.19
64336;BME280;50672;53.362;-6.240;2022-09-09T08:26:34;100835.84;;;17.66;86.88
64336;BME280;50672;53.362;-6.240;2022-09-09T08:29:03;100836.13;;;17.89;86.71
64336;BME280;50672;53.362;-6.240;2022-09-09T08:31:35;100841.63;;;17.96;86.12
64336;BME280;50672;53.362;-6.240;2022-09-09T08:34:04;100836.13;;;17.89;85.99
64336;BME280;50672;53.362;-6.240;2022-09-09T08:36:34;100845.91;;;17.79;85.53
64336;BME280;50672;53.362;-6.240;2022-09-09T08:39:04;100854.81;;;17.81;85.28
64336;BME280;50672;53.362;-6.240;2022-09-09T08:41:40;100857.91;;;17.98;85.15
64336;BME280;50672;53.362;-6.240;2022-09-09T08:47:12;100864.56;;;18.15;84.36
64336;BME280;50672;53.362;-6.240;2022-09-09T08:52:31;100863.19;;;18.31;83.92
64336;BME280;50672;53.362;-6.240;2022-09-09T08:57:39;100872.22;;;18.38;83.47
64336;BME280;50672;53.362;-6.240;2022-09-09T09:00:09;100876.91;;;18.38;83.21
64336;BME280;50672;53.362;-6.240;2022-09-09T09:05:27;100890.28;;;18.34;82.63
64336;BME280;50672;53.362;-6.240;2022-09-09T09:10:54;100899.44;;;18.28;81.89
64336;BME280;50672;53.362;-6.240;2022-09-09T09:16:02;100903.19;;;18.08;81.35
64336;BME280;50672;53.362;-6.240;2022-09-09T09:18:31;100907.25;;;17.99;81.13
64336;BME280;50672;53.362;-6.240;2022-09-09T09:21:16;100911.09;;;17.91;81.17
64336;BME280;50672;53.362;-6.240;2022-09-09T09:24:10;100909.38;;;17.97;80.78
64336;BME280;50672;53.362;-6.240;2022-09-09T09:26:47;100915.50;;;18.06;80.65
64336;BME280;50672;53.362;-6.240;2022-09-09T09:29:16;100915.88;;;18.09;80.41
64336;BME280;50672;53.362;-6.240;2022-09-09T09:31:55;100926.03;;;18.16;80.28
64336;BME280;50672;53.362;-6.240;2022-09-09T09:34:23;100923.00;;;18.24;80.18
64336;BME280;50672;53.362;-6.240;2022-09-09T09:36:56;100927.38;;;18.32;79.89
64336;BME280;50672;53.362;-6.240;2022-09-09T09:39:29;100927.34;;;18.38;79.78
64336;BME280;50672;53.362;-6.240;2022-09-09T09:42:17;100935.16;;;18.41;79.34
64336;BME280;50672;53.362;-6.240;2022-09-09T09:44:49;100937.47;;;18.44;79.29
64336;BME280;50672;53.362;-6.240;2022-09-09T09:47:22;100947.44;;;18.45;79.28
64336;BME280;50672;53.362;-6.240;2022-09-09T09:49:58;100949.00;;;18.60;79.00
64336;BME280;50672;53.362;-6.240;2022-09-09T09:52:30;100951.63;;;18.80;78.55
64336;BME280;50672;53.362;-6.240;2022-09-09T09:54:59;100957.91;;;18.94;78.76
64336;BME280;50672;53.362;-6.240;2022-09-09T09:57:33;100963.34;;;19.01;78.37
64336;BME280;50672;53.362;-6.240;2022-09-09T10:00:13;100961.84;;;19.05;78.13
64336;BME280;50672;53.362;-6.240;2022-09-09T10:02:43;100964.97;;;19.08;77.73
64336;BME280;50672;53.362;-6.240;2022-09-09T10:05:24;100964.84;;;19.22;77.74
64336;BME280;50672;53.362;-6.240;2022-09-09T10:08:19;100967.31;;;19.30;77.29
64336;BME280;50672;53.362;-6.240;2022-09-09T10:11:26;100967.63;;;19.40;76.92
64336;BME280;50672;53.362;-6.240;2022-09-09T10:14:10;100967.78;;;19.45;76.64
64336;BME280;50672;53.362;-6.240;2022-09-09T10:17:06;100972.38;;;19.52;76.50
64336;BME280;50672;53.362;-6.240;2022-09-09T10:19:37;100979.06;;;19.62;76.11
64336;BME280;50672;53.362;-6.240;2022-09-09T10:34:19;100986.03;;;20.32;74.47
64336;BME280;50672;53.362;-6.240;2022-09-09T10:50:23;101004.88;;;21.32;72.26
64336;BME280;50672;53.362;-6.240;2022-09-09T10:57:57;101008.34;;;21.75;70.93
64336;BME280;50672;53.362;-6.240;2022-09-09T11:00:49;101014.31;;;21.55;70.19
64336;BME280;50672;53.362;-6.240;2022-09-09T11:04:25;101005.63;;;21.39;69.54
64336;BME280;50672;53.362;-6.240;2022-09-09T11:07:40;101010.75;;;21.24;69.29
64336;BME280;50672;53.362;-6.240;2022-09-09T11:19:35;101033.91;;;21.29;68.07
64336;BME280;50672;53.362;-6.240;2022-09-09T11:25:05;101028.34;;;21.41;67.41
64336;BME280;50672;53.362;-6.240;2022-09-09T11:33:33;101028.06;;;22.02;66.99
64336;BME280;50672;53.362;-6.240;2022-09-09T11:38:59;101031.69;;;21.91;66.19
64336;BME280;50672;53.362;-6.240;2022-09-09T11:41:34;101038.09;;;22.20;65.82
64336;BME280;50672;53.362;-6.240;2022-09-09T11:44:17;101030.84;;;22.31;65.34
64336;BME280;50672;53.362;-6.240;2022-09-09T11:46:46;101033.41;;;22.21;65.06
64336;BME280;50672;53.362;-6.240;2022-09-09T11:49:41;101040.63;;;21.81;64.94
64336;BME280;50672;53.362;-6.240;2022-09-09T11:52:25;101042.56;;;21.45;64.58
64336;BME280;50672;53.362;-6.240;2022-09-09T11:54:55;101038.06;;;21.08;64.69
64336;BME280;50672;53.362;-6.240;2022-09-09T11:57:26;101042.25;;;20.75;64.63
64336;BME280;50672;53.362;-6.240;2022-09-09T11:59:57;101043.59;;;20.54;64.74
64336;BME280;50672;53.362;-6.240;2022-09-09T12:02:27;101050.47;;;20.63;65.03
64336;BME280;50672;53.362;-6.240;2022-09-09T12:05:00;101048.34;;;21.20;65.03
64336;BME280;50672;53.362;-6.240;2022-09-09T12:07:41;101038.50;;;21.59;65.12
64336;BME280;50672;53.362;-6.240;2022-09-09T12:12:54;101047.13;;;21.51;64.79
64336;BME280;50672;53.362;-6.240;2022-09-09T12:15:28;101047.84;;;21.34;64.72
64336;BME280;50672;53.362;-6.240;2022-09-09T12:17:57;101048.81;;;21.28;64.67
64336;BME280;50672;53.362;-6.240;2022-09-09T12:20:39;101050.25;;;21.07;64.65
64336;BME280;50672;53.362;-6.240;2022-09-09T12:29:44;101059.63;;;20.64;65.03
64336;BME280;50672;53.362;-6.240;2022-09-09T12:32:22;101059.31;;;20.54;65.02
64336;BME280;50672;53.362;-6.240;2022-09-09T12:37:38;101068.47;;;20.54;65.18
64336;BME280;50672;53.362;-6.240;2022-09-09T12:42:48;101078.22;;;20.75;65.18
64336;BME280;50672;53.362;-6.240;2022-09-09T12:45:24;101077.28;;;20.93;65.05
64336;BME280;50672;53.362;-6.240;2022-09-09T12:47:56;101078.22;;;21.29;65.20
64336;BME280;50672;53.362;-6.240;2022-09-09T12:50:27;101075.84;;;21.68;65.11
64336;BME280;50672;53.362;-6.240;2022-09-09T12:52:57;101087.09;;;21.91;64.93
64336;BME280;50672;53.362;-6.240;2022-09-09T12:55:28;101087.72;;;21.81;64.56
64336;BME280;50672;53.362;-6.240;2022-09-09T12:57:57;101085.56;;;21.71;64.33
64336;BME280;50672;53.362;-6.240;2022-09-09T13:00:26;101087.00;;;21.74;64.23
64336;BME280;50672;53.362;-6.240;2022-09-09T13:02:55;101089.19;;;21.83;63.84
64336;BME280;50672;53.362;-6.240;2022-09-09T13:05:28;101085.88;;;22.10;63.65
64336;BME280;50672;53.362;-6.240;2022-09-09T13:08:08;101094.06;;;22.58;63.17
64336;BME280;50672;53.362;-6.240;2022-09-09T13:13:30;101085.53;;;22.59;62.55
64336;BME280;50672;53.362;-6.240;2022-09-09T13:16:00;101086.88;;;22.57;62.39
64336;BME280;50672;53.362;-6.240;2022-09-09T13:18:30;101092.19;;;22.46;62.10
64336;BME280;50672;53.362;-6.240;2022-09-09T13:20:58;101096.94;;;22.34;61.89
64336;BME280;50672;53.362;-6.240;2022-09-09T13:23:30;101108.16;;;22.15;61.97
64336;BME280;50672;53.362;-6.240;2022-09-09T13:26:01;101104.44;;;22.10;61.85
64336;BME280;50672;53.362;-6.240;2022-09-09T13:28:30;101114.69;;;22.09;61.96
64336;BME280;50672;53.362;-6.240;2022-09-09T13:31:00;101113.72;;;22.15;61.92
64336;BME280;50672;53.362;-6.240;2022-09-09T13:33:31;101121.97;;;21.87;61.92
64336;BME280;50672;53.362;-6.240;2022-09-09T13:36:03;101118.31;;;21.50;62.13
64336;BME280;50672;53.362;-6.240;2022-09-09T13:38:33;101116.34;;;21.15;62.08
64336;BME280;50672;53.362;-6.240;2022-09-09T13:41:07;101118.75;;;20.81;62.34
64336;BME280;50672;53.362;-6.240;2022-09-09T13:43:42;101126.69;;;20.59;62.61
64336;BME280;50672;53.362;-6.240;2022-09-09T13:46:35;101132.09;;;20.36;62.80
64336;BME280;50672;53.362;-6.240;2022-09-09T13:51:46;101142.84;;;20.07;63.98
64336;BME280;50672;53.362;-6.240;2022-09-09T13:54:15;101139.53;;;19.98;64.27
64336;BME280;50672;53.362;-6.240;2022-09-09T13:56:42;101140.69;;;19.90;65.03
64336;BME280;50672;53.362;-6.240;2022-09-09T13:59:12;101144.56;;;19.83;65.46
64336;BME280;50672;53.362;-6.240;2022-09-09T14:01:39;101147.59;;;19.74;66.02
64336;BME280;50672;53.362;-6.240;2022-09-09T14:04:06;101151.88;;;19.70;66.65
64336;BME280;50672;53.362;-6.240;2022-09-09T14:06:37;101147.50;;;19.62;67.27
64336;BME280;50672;53.362;-6.240;2022-09-09T14:09:11;101153.50;;;19.59;68.09
64336;BME280;50672;53.362;-6.240;2022-09-09T14:11:38;101157.31;;;19.58;68.49
64336;BME280;50672;53.362;-6.240;2022-09-09T14:14:07;101160.91;;;19.59;68.87
64336;BME280;50672;53.362;-6.240;2022-09-09T14:16:34;101166.28;;;19.54;69.32
64336;BME280;50672;53.362;-6.240;2022-09-09T14:19:01;101166.72;;;19.51;69.97
64336;BME280;50672;53.362;-6.240;2022-09-09T14:21:28;101158.84;;;19.54;70.37
64336;BME280;50672;53.362;-6.240;2022-09-09T14:23:55;101162.78;;;19.65;70.75
64336;BME280;50672;53.362;-6.240;2022-09-09T14:26:24;101164.41;;;19.73;71.34
64336;BME280;50672;53.362;-6.240;2022-09-09T14:28:52;101167.56;;;19.76;71.32
64336;BME280;50672;53.362;-6.240;2022-09-09T14:31:22;101169.25;;;19.77;71.37
64336;BME280;50672;53.362;-6.240;2022-09-09T14:33:50;101169.63;;;19.88;71.62
64336;BME280;50672;53.362;-6.240;2022-09-09T14:36:18;101173.91;;;20.02;71.59
64336;BME280;50672;53.362;-6.240;2022-09-09T14:38:44;101177.31;;;20.23;71.76
64336;BME280;50672;53.362;-6.240;2022-09-09T14:41:13;101186.69;;;20.77;71.66
64336;BME280;50672;53.362;-6.240;2022-09-09T14:43:43;101180.91;;;21.40;71.48
64336;BME280;50672;53.362;-6.240;2022-09-09T14:46:16;101183.88;;;22.28;70.96
64336;BME280;50672;53.362;-6.240;2022-09-09T14:48:43;101198.28;;;24.81;70.28
64336;BME280;50672;53.362;-6.240;2022-09-09T14:51:20;101173.16;;;25.96;68.40
64336;BME280;50672;53.362;-6.240;2022-09-09T14:53:51;101169.16;;;25.49;67.05
64336;BME280;50672;53.362;-6.240;2022-09-09T14:56:21;101177.78;;;25.20;66.07
64336;BME280;50672;53.362;-6.240;2022-09-09T14:58:50;101194.50;;;26.17;65.15
64336;BME280;50672;53.362;-6.240;2022-09-09T15:01:18;101170.69;;;27.47;63.59
64336;BME280;50672;53.362;-6.240;2022-09-09T15:03:56;101171.81;;;26.56;62.61
64336;BME280;50672;53.362;-6.240;2022-09-09T15:06:32;101168.63;;;25.89;61.35
64336;BME280;50672;53.362;-6.240;2022-09-09T15:08:59;101183.63;;;25.78;60.90
64336;BME280;50672;53.362;-6.240;2022-09-09T15:11:29;101174.47;;;25.50;60.34
64336;BME280;50672;53.362;-6.240;2022-09-09T15:13:57;101190.41;;;25.92;59.94
64336;BME280;50672;53.362;-6.240;2022-09-09T15:16:26;101177.91;;;28.09;59.04
64336;BME280;50672;53.362;-6.240;2022-09-09T15:18:55;101177.88;;;27.06;57.93
64336;BME280;50672;53.362;-6.240;2022-09-09T15:21:26;101177.47;;;25.76;57.75
64336;BME280;50672;53.362;-6.240;2022-09-09T15:23:53;101183.13;;;24.72;57.46
64336;BME280;50672;53.362;-6.240;2022-09-09T15:26:20;101183.47;;;23.80;57.68
64336;BME280;50672;53.362;-6.240;2022-09-09T15:28:48;101183.03;;;23.09;57.80
64336;BME280;50672;53.362;-6.240;2022-09-09T15:31:26;101190.22;;;22.52;58.28
64336;BME280;50672;53.362;-6.240;2022-09-09T15:33:59;101192.31;;;22.09;58.52
64336;BME280;50672;53.362;-6.240;2022-09-09T15:39:02;101199.53;;;21.63;59.41
64336;BME280;50672;53.362;-6.240;2022-09-09T15:41:29;101204.81;;;21.53;59.84
64336;BME280;50672;53.362;-6.240;2022-09-09T15:43:58;101199.34;;;21.46;59.97
64336;BME280;50672;53.362;-6.240;2022-09-09T15:46:37;101214.50;;;21.43;60.25
64336;BME280;50672;53.362;-6.240;2022-09-09T15:49:08;101207.97;;;21.38;60.39
64336;BME280;50672;53.362;-6.240;2022-09-09T15:51:40;101214.56;;;21.25;60.65
64336;BME280;50672;53.362;-6.240;2022-09-09T15:54:16;101209.03;;;21.25;60.86
64336;BME280;50672;53.362;-6.240;2022-09-09T15:56:50;101217.81;;;21.22;61.40
64336;BME280;50672;53.362;-6.240;2022-09-09T15:59:17;101219.94;;;21.08;61.40
64336;BME280;50672;53.362;-6.240;2022-09-09T16:01:44;101231.72;;;24.64;60.97
64336;BME280;50672;53.362;-6.240;2022-09-09T16:04:11;101217.28;;;27.05;59.93
64336;BME280;50672;53.362;-6.240;2022-09-09T16:06:39;101212.03;;;26.07;58.96
64336;BME280;50672;53.362;-6.240;2022-09-09T16:09:06;101211.66;;;25.34;58.27
64336;BME280;50672;53.362;-6.240;2022-09-09T16:11:36;101214.63;;;24.55;58.07